sensor_id;sensor_type;location;lat;lon;timestamp;temperature;humidity
16907;DHT22;8570;52.380;4.654;2023-02-20T00:02:37;7.40;99.90
16907;DHT22;8570;52.380;4.654;2023-02-20T00:12:43;7.50;99.90
16907;DHT22;8570;52.380;4.654;2023-02-20T00:17:45;7.60;99.90
16907;DHT22;8570;52.380;4.654;2023-02-20T08:24:58;7.90;99.90
16907;DHT22;8570;52.380;4.654;2023-02-20T08:30:01;8.00;99.90
16907;DHT22;8570;52.380;4.654;2023-02-20T08:35:03;8.00;99.90
16907;DHT22;8570;52.380;4.654;2023-02-20T08:40:06;8.10;99.90
16907;DHT22;8570;52.380;4.654;2023-02-20T08:45:10;8.10;99.90
16907;DHT22;8570;52.380;4.654;2023-02-20T08:50:12;8.10;99.90
16907;DHT22;8570;52.380;4.654;2023-02-20T08:55:14;8.10;99.90
16907;DHT22;8570;52.380;4.654;2023-02-20T09:00:18;8.10;99.90
16907;DHT22;8570;52.380;4.654;2023-02-20T09:05:20;8.20;99.90
16907;DHT22;8570;52.380;4.654;2023-02-20T09:10:22;8.10;99.90
16907;DHT22;8570;52.380;4.654;2023-02-20T09:15:25;8.20;99.90
16907;DHT22;8570;52.380;4.654;2023-02-20T09:20:27;8.20;99.90
16907;DHT22;8570;52.380;4.654;2023-02-20T09:25:29;8.20;99.90
16907;DHT22;8570;52.380;4.654;2023-02-20T09:30:32;8.30;99.90
16907;DHT22;8570;52.380;4.654;2023-02-20T09:35:34;8.30;99.90
16907;DHT22;8570;52.380;4.654;2023-02-20T09:40:36;8.30;99.90
16907;DHT22;8570;52.380;4.654;2023-02-20T09:45:41;8.30;99.90
16907;DHT22;8570;52.380;4.654;2023-02-20T09:50:48;8.30;99.90
16907;DHT22;8570;52.380;4.654;2023-02-20T09:55:52;8.30;99.90
16907;DHT22;8570;52.380;4.654;2023-02-20T10:01:00;8.40;99.90
16907;DHT22;8570;52.380;4.654;2023-02-20T10:06:09;8.40;99.90
16907;DHT22;8570;52.380;4.654;2023-02-20T10:11:23;8.40;99.90
16907;DHT22;8570;52.380;4.654;2023-02-20T10:16:36;8.40;99.90
16907;DHT22;8570;52.380;4.654;2023-02-20T10:21:48;8.50;99.90
16907;DHT22;8570;52.380;4.654;2023-02-20T10:26:55;8.60;99.90
16907;DHT22;8570;52.380;4.654;2023-02-20T10:32:03;8.60;99.90
16907;DHT22;8570;52.380;4.654;2023-02-20T10:37:10;8.70;99.90
16907;DHT22;8570;52.380;4.654;2023-02-20T10:42:18;8.80;99.90
16907;DHT22;8570;52.380;4.654;2023-02-20T10:47:26;8.80;99.90
16907;DHT22;8570;52.380;4.654;2023-02-20T10:52:34;8.80;99.90
16907;DHT22;8570;52.380;4.654;2023-02-20T10:57:38;8.90;99.90
16907;DHT22;8570;52.380;4.654;2023-02-20T11:02:46;8.90;99.90
16907;DHT22;8570;52.380;4.654;2023-02-20T11:07:49;9.00;99.90
16907;DHT22;8570;52.380;4.654;2023-02-20T11:12:53;9.00;99.90
16907;DHT22;8570;52.380;4.654;2023-02-20T11:17:58;9.00;99.90
16907;DHT22;8570;52.380;4.654;2023-02-20T11:23:01;9.10;99.90
16907;DHT22;8570;52.380;4.654;2023-02-20T11:28:09;9.00;99.90
16907;DHT22;8570;52.380;4.654;2023-02-20T11:33:16;9.10;99.90
16907;DHT22;8570;52.380;4.654;2023-02-20T11:38:29;9.10;99.90
16907;DHT22;8570;52.380;4.654;2023-02-20T11:43:34;9.00;99.90
16907;DHT22;8570;52.380;4.654;2023-02-20T11:48:37;9.00;99.90
16907;DHT22;8570;52.380;4.654;2023-02-20T11:53:39;9.00;99.90
16907;DHT22;8570;52.380;4.654;2023-02-20T11:58:42;8.90;99.90
16907;DHT22;8570;52.380;4.654;2023-02-20T12:03:54;8.90;99.90
16907;DHT22;8570;52.380;4.654;2023-02-20T12:08:56;8.90;99.90
16907;DHT22;8570;52.380;4.654;2023-02-20T12:13:59;9.00;99.90
16907;DHT22;8570;52.380;4.654;2023-02-20T12:19:08;9.00;99.90
16907;DHT22;8570;52.380;4.654;2023-02-20T12:24:26;9.00;99.90
16907;DHT22;8570;52.380;4.654;2023-02-20T12:29:40;9.10;99.90
16907;DHT22;8570;52.380;4.654;2023-02-20T12:45:22;9.30;99.90
16907;DHT22;8570;52.380;4.654;2023-02-20T12:50:49;9.40;99.90
16907;DHT22;8570;52.380;4.654;2023-02-20T12:56:01;9.40;99.90
16907;DHT22;8570;52.380;4.654;2023-02-20T13:01:09;9.40;99.90
16907;DHT22;8570;52.380;4.654;2023-02-20T13:06:17;9.50;99.90
16907;DHT22;8570;52.380;4.654;2023-02-20T13:11:23;9.50;99.90
16907;DHT22;8570;52.380;4.654;2023-02-20T13:16:31;9.50;99.90
16907;DHT22;8570;52.380;4.654;2023-02-20T13:21:35;9.60;99.90
16907;DHT22;8570;52.380;4.654;2023-02-20T13:26:46;9.60;99.90
16907;DHT22;8570;52.380;4.654;2023-02-20T13:31:50;9.60;99.90
16907;DHT22;8570;52.380;4.654;2023-02-20T13:36:52;9.60;99.90
16907;DHT22;8570;52.380;4.654;2023-02-20T13:42:00;9.50;99.90
16907;DHT22;8570;52.380;4.654;2023-02-20T13:47:36;9.50;99.90
16907;DHT22;8570;52.380;4.654;2023-02-20T13:52:40;9.40;99.90
16907;DHT22;8570;52.380;4.654;2023-02-20T13:57:44;9.40;99.90
16907;DHT22;8570;52.380;4.654;2023-02-20T14:02:48;9.30;99.90
16907;DHT22;8570;52.380;4.654;2023-02-20T14:07:50;9.30;99.90
16907;DHT22;8570;52.380;4.654;2023-02-20T14:12:56;9.30;99.90
16907;DHT22;8570;52.380;4.654;2023-02-20T14:18:00;9.20;99.90
16907;DHT22;8570;52.380;4.654;2023-02-20T14:23:16;9.20;99.90
16907;DHT22;8570;52.380;4.654;2023-02-20T14:28:19;9.20;99.90
16907;DHT22;8570;52.380;4.654;2023-02-20T14:33:25;9.20;99.90
16907;DHT22;8570;52.380;4.654;2023-02-20T14:38:36;9.20;99.90
16907;DHT22;8570;52.380;4.654;2023-02-20T14:43:41;9.20;99.90
16907;DHT22;8570;52.380;4.654;2023-02-20T14:48:44;9.20;99.90
16907;DHT22;8570;52.380;4.654;2023-02-20T14:53:56;9.20;99.90
16907;DHT22;8570;52.380;4.654;2023-02-20T14:59:23;9.20;99.90
16907;DHT22;8570;52.380;4.654;2023-02-20T15:04:27;9.20;99.90
16907;DHT22;8570;52.380;4.654;2023-02-20T15:09:40;9.10;99.90
16907;DHT22;8570;52.380;4.654;2023-02-20T15:14:42;9.10;99.90
16907;DHT22;8570;52.380;4.654;2023-02-20T15:19:46;9.10;99.90
16907;DHT22;8570;52.380;4.654;2023-02-20T15:24:48;9.00;99.90
16907;DHT22;8570;52.380;4.654;2023-02-20T15:30:08;9.00;99.90
16907;DHT22;8570;52.380;4.654;2023-02-20T15:35:17;8.90;99.90
16907;DHT22;8570;52.380;4.654;2023-02-20T15:40:24;8.90;99.90
16907;DHT22;8570;52.380;4.654;2023-02-20T15:45:27;8.90;99.90
16907;DHT22;8570;52.380;4.654;2023-02-20T15:50:32;8.90;99.90
16907;DHT22;8570;52.380;4.654;2023-02-20T15:55:34;8.90;99.90
16907;DHT22;8570;52.380;4.654;2023-02-20T16:00:36;8.90;99.90
16907;DHT22;8570;52.380;4.654;2023-02-20T16:05:39;8.90;99.90
16907;DHT22;8570;52.380;4.654;2023-02-20T16:10:41;8.90;99.90
16907;DHT22;8570;52.380;4.654;2023-02-20T16:15:43;8.90;99.90
16907;DHT22;8570;52.380;4.654;2023-02-20T16:20:47;8.80;99.90
16907;DHT22;8570;52.380;4.654;2023-02-20T16:25:49;8.80;99.90
16907;DHT22;8570;52.380;4.654;2023-02-20T16:30:52;8.80;99.90
16907;DHT22;8570;52.380;4.654;2023-02-20T16:35:56;8.80;99.90
16907;DHT22;8570;52.380;4.654;2023-02-20T16:40:58;8.80;99.90
16907;DHT22;8570;52.380;4.654;2023-02-20T16:46:03;8.80;99.90
16907;DHT22;8570;52.380;4.654;2023-02-20T16:51:09;8.80;99.90
16907;DHT22;8570;52.380;4.654;2023-02-20T16:56:13;8.70;99.90
16907;DHT22;8570;52.380;4.654;2023-02-20T17:01:15;8.70;99.90
16907;DHT22;8570;52.380;4.654;2023-02-20T17:06:18;8.70;99.90
16907;DHT22;8570;52.380;4.654;2023-02-20T17:11:22;8.70;99.90
16907;DHT22;8570;52.380;4.654;2023-02-20T17:16:24;8.70;99.90
16907;DHT22;8570;52.380;4.654;2023-02-20T17:21:27;8.70;99.90
16907;DHT22;8570;52.380;4.654;2023-02-20T17:26:29;8.70;99.90
16907;DHT22;8570;52.380;4.654;2023-02-20T17:31:35;8.70;99.90
16907;DHT22;8570;52.380;4.654;2023-02-20T17:36:41;8.70;99.90
16907;DHT22;8570;52.380;4.654;2023-02-20T17:41:48;8.60;99.90
16907;DHT22;8570;52.380;4.654;2023-02-20T17:46:51;8.70;99.90
16907;DHT22;8570;52.380;4.654;2023-02-20T17:51:56;8.70;99.90
16907;DHT22;8570;52.380;4.654;2023-02-20T17:57:00;8.70;99.90
16907;DHT22;8570;52.380;4.654;2023-02-20T18:02:02;8.70;99.90
16907;DHT22;8570;52.380;4.654;2023-02-20T18:07:06;8.70;99.90
16907;DHT22;8570;52.380;4.654;2023-02-20T18:12:09;8.70;99.90
16907;DHT22;8570;52.380;4.654;2023-02-20T18:17:12;8.70;99.90
16907;DHT22;8570;52.380;4.654;2023-02-20T18:22:15;8.70;99.90
16907;DHT22;8570;52.380;4.654;2023-02-20T18:27:17;8.70;99.90
16907;DHT22;8570;52.380;4.654;2023-02-20T18:32:19;8.70;99.90
16907;DHT22;8570;52.380;4.654;2023-02-20T18:37:23;8.60;99.90
16907;DHT22;8570;52.380;4.654;2023-02-20T18:42:25;8.60;99.90
16907;DHT22;8570;52.380;4.654;2023-02-20T18:47:28;8.60;99.90
16907;DHT22;8570;52.380;4.654;2023-02-20T18:52:31;8.60;99.90
16907;DHT22;8570;52.380;4.654;2023-02-20T18:57:33;8.60;99.90
16907;DHT22;8570;52.380;4.654;2023-02-20T19:02:35;8.60;99.90
16907;DHT22;8570;52.380;4.654;2023-02-20T19:07:41;8.60;99.90
16907;DHT22;8570;52.380;4.654;2023-02-20T19:12:45;8.60;99.90
16907;DHT22;8570;52.380;4.654;2023-02-20T19:17:53;8.60;99.90
16907;DHT22;8570;52.380;4.654;2023-02-20T19:23:05;8.60;99.90
16907;DHT22;8570;52.380;4.654;2023-02-20T19:28:07;8.60;99.90
16907;DHT22;8570;52.380;4.654;2023-02-20T19:33:11;8.60;99.90
16907;DHT22;8570;52.380;4.654;2023-02-20T19:38:15;8.50;99.90
16907;DHT22;8570;52.380;4.654;2023-02-20T19:43:17;8.50;99.90
16907;DHT22;8570;52.380;4.654;2023-02-20T19:48:19;8.50;99.90
16907;DHT22;8570;52.380;4.654;2023-02-20T19:53:22;8.50;99.90
16907;DHT22;8570;52.380;4.654;2023-02-20T19:58:24;8.50;99.90
16907;DHT22;8570;52.380;4.654;2023-02-20T20:03:26;8.50;99.90
16907;DHT22;8570;52.380;4.654;2023-02-20T20:08:29;8.50;99.90
16907;DHT22;8570;52.380;4.654;2023-02-20T20:13:32;8.60;99.90
16907;DHT22;8570;52.380;4.654;2023-02-20T20:18:33;8.60;99.90
16907;DHT22;8570;52.380;4.654;2023-02-20T20:23:37;8.60;99.90
16907;DHT22;8570;52.380;4.654;2023-02-20T20:28:39;8.60;99.90
16907;DHT22;8570;52.380;4.654;2023-02-20T20:33:41;8.50;99.90
16907;DHT22;8570;52.380;4.654;2023-02-20T20:38:44;8.60;99.90
16907;DHT22;8570;52.380;4.654;2023-02-20T20:43:46;8.60;99.90
16907;DHT22;8570;52.380;4.654;2023-02-20T20:48:48;8.60;99.90
16907;DHT22;8570;52.380;4.654;2023-02-20T20:53:51;8.50;99.90
16907;DHT22;8570;52.380;4.654;2023-02-20T20:58:53;8.60;99.90
16907;DHT22;8570;52.380;4.654;2023-02-20T21:03:55;8.50;99.90
16907;DHT22;8570;52.380;4.654;2023-02-20T21:08:58;8.50;99.90
16907;DHT22;8570;52.380;4.654;2023-02-20T21:14:00;8.50;99.90
16907;DHT22;8570;52.380;4.654;2023-02-20T21:19:02;8.50;99.90
16907;DHT22;8570;52.380;4.654;2023-02-20T21:24:06;8.50;99.90
16907;DHT22;8570;52.380;4.654;2023-02-20T21:29:09;8.50;99.90
16907;DHT22;8570;52.380;4.654;2023-02-20T21:34:12;8.50;99.90
16907;DHT22;8570;52.380;4.654;2023-02-20T21:39:17;8.50;99.90
16907;DHT22;8570;52.380;4.654;2023-02-20T21:44:20;8.50;99.90
16907;DHT22;8570;52.380;4.654;2023-02-20T21:49:31;8.50;99.90
16907;DHT22;8570;52.380;4.654;2023-02-20T21:54:34;8.50;99.90
16907;DHT22;8570;52.380;4.654;2023-02-20T21:59:36;8.60;99.90
16907;DHT22;8570;52.380;4.654;2023-02-20T22:04:37;8.60;99.90
16907;DHT22;8570;52.380;4.654;2023-02-20T22:09:39;8.60;99.90
16907;DHT22;8570;52.380;4.654;2023-02-20T22:15:00;8.60;99.90
16907;DHT22;8570;52.380;4.654;2023-02-20T22:20:19;8.60;99.90
16907;DHT22;8570;52.380;4.654;2023-02-20T22:25:39;8.60;99.90
16907;DHT22;8570;52.380;4.654;2023-02-20T22:30:59;8.60;99.90
16907;DHT22;8570;52.380;4.654;2023-02-20T22:36:18;8.60;99.90
16907;DHT22;8570;52.380;4.654;2023-02-20T22:41:39;8.60;99.90
16907;DHT22;8570;52.380;4.654;2023-02-20T22:46:58;8.60;99.90
16907;DHT22;8570;52.380;4.654;2023-02-20T22:52:18;8.70;99.90
16907;DHT22;8570;52.380;4.654;2023-02-20T22:57:39;8.70;99.90
16907;DHT22;8570;52.380;4.654;2023-02-20T23:02:58;8.70;99.90
16907;DHT22;8570;52.380;4.654;2023-02-20T23:08:18;8.60;99.90
16907;DHT22;8570;52.380;4.654;2023-02-20T23:13:38;8.70;99.90
16907;DHT22;8570;52.380;4.654;2023-02-20T23:18:57;8.70;99.90
16907;DHT22;8570;52.380;4.654;2023-02-20T23:24:17;8.70;99.90
16907;DHT22;8570;52.380;4.654;2023-02-20T23:29:38;8.60;99.90
16907;DHT22;8570;52.380;4.654;2023-02-20T23:34:58;8.60;99.90
16907;DHT22;8570;52.380;4.654;2023-02-20T23:40:17;8.60;99.90
16907;DHT22;8570;52.380;4.654;2023-02-20T23:45:38;8.60;99.90
16907;DHT22;8570;52.380;4.654;2023-02-20T23:50:58;8.60;99.90
16907;DHT22;8570;52.380;4.654;2023-02-20T23:56:17;8.60;99.90
